Observations

86.7 °F / 30.4 °C
E at 6 MPH
69%
75.6°F / 24.2 °C
29.83" (1010 mb)
10 mile(s)
partly cloudy
2021.09.19 2340 UTC

Observations

Surface


Raw METARs

2021/09/19 23:40
PKWA 192340Z AUTO 08005KT 10SM SCT021 30/24 A2983 RMK AO2 T03040242

Translated METAR

Kwajalein, Bucholz AAF, Kwajalein KMR ATOL Airport, Marshall Islands (PKWA) 08-43N 167-44E 2M
Sep 19, 2021 - 07:40 PM EDT / 2021.09.19 2340 UTC
Wind: from the E (080 degrees) at 6 MPH (5 KT):0
Visibility: 10 mile(s):0
Sky conditions: partly cloudy
Temperature: 86.7 F (30.4 C)
Heat index: 96.3 F (35.7 C):1
Dew Point: 75.6 F (24.2 C)
Relative Humidity: 69%
Pressure (altimeter): 29.83 in. Hg (1010 hPa)
ob: PKWA 192340Z AUTO 08005KT 10SM SCT021 30/24 A2983 RMK AO2 T03040242
cycle: 23



Upper Air


Latest Skew-T

Skew T Diagram

Latest Data File